Time;durP1;ratioP1;P1;durP2;ratioP2;P2;SDS_P1;SDS_P2;PMS_P1;PMS_P2;Temp;Humidity;BMP_temperature;BMP_pressure;BME280_temperature;BME280_humidity;BME280_pressure;Samples;Min_cycle;Max_cycle;Signal;HPM_P1;HPM_P2
2022/03/07 00:01:31;;;;;;;16.70;9.88;;;;;;;1.52;75.33;94677.22;4887018;29;20040;-76
2022/03/07 00:03:57;;;;;;;12.88;9.32;;;;;;;1.63;74.36;94673.41;4904243;29;20052;-76
2022/03/07 00:06:22;;;;;;;14.35;9.63;;;;;;;1.61;74.84;94675.34;4905121;29;20519;-76
2022/03/07 00:08:49;;;;;;;17.02;10.27;;;;;;;1.57;74.93;94680.03;4903381;29;20477;-77
2022/03/07 00:11:15;;;;;;;14.82;10.68;;;;;;;1.60;75.21;94678.88;4888064;29;20033;-77
2022/03/07 00:13:40;;;;;;;14.82;9.38;;;;;;;1.65;75.00;94687.63;4903265;29;20112;-77
2022/03/07 00:16:06;;;;;;;17.48;11.07;;;;;;;1.64;75.12;94675.81;4904411;29;20032;-76
2022/03/07 00:18:31;;;;;;;14.90;9.82;;;;;;;1.70;74.98;94679.41;4901189;29;20048;-76
2022/03/07 00:20:57;;;;;;;13.57;9.80;;;;;;;1.78;74.88;94669.81;4903865;29;20036;-76
2022/03/07 00:23:22;;;;;;;13.77;9.70;;;;;;;1.83;74.07;94668.50;4904647;29;20560;-77
2022/03/07 00:25:47;;;;;;;14.45;10.40;;;;;;;1.73;74.54;94664.44;4917568;29;20036;-76
2022/03/07 00:28:14;;;;;;;16.73;11.15;;;;;;;1.69;74.55;94668.34;4904744;29;20036;-76
2022/03/07 00:30:40;;;;;;;15.05;10.93;;;;;;;1.67;74.63;94669.50;4903812;29;20040;-77
2022/03/07 00:35:37;;;;;;;15.53;10.17;;;;;;;1.54;74.82;94659.91;4944220;23;20071;-76
2022/03/07 00:38:02;;;;;;;16.33;9.93;;;;;;;1.53;75.79;94662.66;4932838;29;20438;-76
2022/03/07 00:42:53;;;;;;;16.35;10.45;;;;;;;1.63;75.44;94658.84;4901641;23;20536;-76
2022/03/07 00:45:18;;;;;;;34.40;17.45;;;;;;;1.59;75.49;94660.16;4894599;29;20028;-76
2022/03/07 00:47:44;;;;;;;16.52;11.02;;;;;;;1.56;75.81;94654.59;4894786;29;20044;-76
2022/03/07 00:50:09;;;;;;;16.77;10.82;;;;;;;1.75;74.84;94654.00;4899754;23;20068;-77
2022/03/07 00:52:35;;;;;;;19.67;11.20;;;;;;;1.86;74.64;94657.88;4926778;23;20360;-76
2022/03/07 00:57:29;;;;;;;15.15;11.65;;;;;;;1.85;74.91;94651.16;4970339;23;20075;-76
2022/03/07 00:59:55;;;;;;;25.85;14.65;;;;;;;1.68;75.28;94655.72;4925016;29;20036;-75
2022/03/07 01:02:20;;;;;;;20.83;12.98;;;;;;;1.54;75.93;94659.91;4923337;29;20090;-76
2022/03/07 01:04:46;;;;;;;16.02;9.77;;;;;;;1.53;75.71;94662.66;4922873;29;20040;-76
2022/03/07 01:07:11;;;;;;;18.15;10.60;;;;;;;1.52;75.99;94655.94;4922168;29;20079;-77
2022/03/07 01:09:36;;;;;;;17.45;9.55;;;;;;;1.54;75.10;94656.53;4919866;29;20040;-76
2022/03/07 01:12:02;;;;;;;11.82;8.90;;;;;;;1.54;75.13;94651.41;4904481;29;20036;-76
2022/03/07 01:14:28;;;;;;;18.05;10.07;;;;;;;1.62;75.12;94643.63;4922734;29;20040;-76
2022/03/07 01:16:53;;;;;;;14.40;9.68;;;;;;;1.63;74.73;94643.47;4922822;29;20415;-76
2022/03/07 01:19:19;;;;;;;14.70;8.68;;;;;;;1.62;74.92;94639.28;4921024;29;20027;-76
2022/03/07 01:21:45;;;;;;;11.75;9.00;;;;;;;1.68;74.82;94635.22;4920661;29;20036;-76
2022/03/07 01:24:11;;;;;;;15.07;9.50;;;;;;;1.61;74.57;94632.56;4922268;29;20511;-76
2022/03/07 01:26:37;;;;;;;14.90;9.73;;;;;;;1.61;75.08;94624.88;4921152;29;20062;-76
2022/03/07 01:29:02;;;;;;;12.98;9.52;;;;;;;1.74;74.88;94635.28;4921961;29;20035;-76
2022/03/07 01:31:36;;;;;;;13.02;8.93;;;;;;;1.89;74.53;94626.75;4920537;29;20046;-76
2022/03/07 01:34:02;;;;;;;11.73;8.18;;;;;;;1.90;73.61;94629.13;4905441;29;20032;-75
2022/03/07 01:36:27;;;;;;;11.68;8.52;;;;;;;1.73;74.47;94631.13;4922595;29;20032;-75
2022/03/07 01:38:53;;;;;;;11.85;8.35;;;;;;;1.67;75.00;94631.06;4922307;29;20048;-76
2022/03/07 01:41:18;;;;;;;10.98;8.82;;;;;;;1.73;74.97;94627.78;4920210;29;20036;-75
2022/03/07 01:43:43;;;;;;;9.93;7.80;;;;;;;1.63;74.93;94632.41;4922172;29;20039;-76
2022/03/07 01:46:09;;;;;;;11.48;8.10;;;;;;;1.76;74.92;94623.06;4922388;29;20028;-76
2022/03/07 01:48:37;;;;;;;9.20;7.60;;;;;;;1.87;74.06;94623.56;4921037;29;20040;-76
2022/03/07 01:51:03;;;;;;;9.98;7.97;;;;;;;1.79;73.95;94617.59;4904948;29;20044;-76
2022/03/07 01:53:28;;;;;;;10.88;7.80;;;;;;;1.74;74.18;94632.72;4919641;29;20043;-76
2022/03/07 01:55:55;;;;;;;8.85;7.13;;;;;;;1.72;74.16;94623.63;4921628;29;20039;-76
2022/03/07 01:58:20;;;;;;;12.30;8.35;;;;;;;1.71;74.19;94634.84;4928850;29;20050;-76
2022/03/07 02:00:47;;;;;;;13.05;7.68;;;;;;;1.61;74.83;94630.00;4920359;29;20032;-75
2022/03/07 02:03:12;;;;;;;9.57;8.00;;;;;;;1.59;74.87;94631.97;4921220;29;20040;-76
2022/03/07 02:05:41;;;;;;;9.68;8.25;;;;;;;1.43;75.35;94632.97;4889933;29;20091;-76
2022/03/07 02:08:07;;;;;;;13.38;8.48;;;;;;;1.36;75.90;94621.06;4927687;29;20031;-75
2022/03/07 02:10:33;;;;;;;10.68;8.43;;;;;;;1.34;75.69;94620.47;4904383;29;20035;-75
2022/03/07 02:12:58;;;;;;;9.23;7.28;;;;;;;1.23;76.02;94621.69;4920932;29;20031;-75
2022/03/07 02:15:23;;;;;;;9.15;7.60;;;;;;;1.26;76.09;94620.53;4920455;29;20050;-76
2022/03/07 02:17:49;;;;;;;9.52;7.47;;;;;;;1.26;76.48;94615.41;4921821;29;20464;-75
2022/03/07 02:20:15;;;;;;;10.45;7.55;;;;;;;1.36;76.04;94621.88;4920999;29;20047;-75
2022/03/07 02:22:41;;;;;;;9.50;7.43;;;;;;;1.47;76.59;94630.88;4921921;29;20044;-76
2022/03/07 02:25:07;;;;;;;10.00;7.22;;;;;;;1.47;75.11;94630.88;4922311;29;20087;-75
2022/03/07 02:27:33;;;;;;;12.18;8.10;;;;;;;1.48;75.51;94637.56;4921017;29;20515;-76
2022/03/07 02:29:59;;;;;;;11.30;8.27;;;;;;;1.43;75.38;94635.53;4904845;29;20075;-76
2022/03/07 02:32:25;;;;;;;10.82;7.97;;;;;;;1.36;75.77;94632.09;4920987;29;20036;-76
2022/03/07 02:34:51;;;;;;;9.80;8.25;;;;;;;1.35;75.98;94629.72;4905126;29;20126;-76
2022/03/07 02:37:16;;;;;;;12.90;8.68;;;;;;;1.32;76.10;94630.09;4921371;29;20080;-75
2022/03/07 02:39:42;;;;;;;11.32;8.68;;;;;;;1.52;75.44;94627.75;4922583;29;20384;-76
2022/03/07 02:42:07;;;;;;;11.32;7.72;;;;;;;1.65;74.89;94630.47;4908016;29;20029;-76
2022/03/07 02:44:33;;;;;;;11.60;7.90;;;;;;;1.60;74.80;94633.53;4923631;29;20694;-76
2022/03/07 02:46:58;;;;;;;12.15;8.05;;;;;;;1.52;75.29;94625.97;4907143;29;20044;-75
2022/03/07 02:49:23;;;;;;;8.27;7.47;;;;;;;1.49;75.24;94632.25;4923460;29;20519;-77
2022/03/07 02:51:49;;;;;;;11.43;8.05;;;;;;;1.46;75.46;94642.88;4907397;29;20040;-75
2022/03/07 02:54:14;;;;;;;12.10;8.40;;;;;;;1.42;75.93;94636.50;4908108;29;20036;-76
2022/03/07 02:56:40;;;;;;;9.73;8.13;;;;;;;1.42;75.79;94640.84;4906857;29;20035;-76
2022/03/07 02:59:05;;;;;;;12.82;8.45;;;;;;;1.37;75.87;94633.69;4924460;29;20042;-75
2022/03/07 03:01:31;;;;;;;10.38;7.95;;;;;;;1.48;75.50;94643.50;4924847;29;20500;-75
2022/03/07 03:03:59;;;;;;;12.05;8.05;;;;;;;1.36;76.08;94631.31;4921939;29;20060;-75
2022/03/07 03:06:25;;;;;;;10.07;7.30;;;;;;;1.38;76.10;94634.50;4923968;29;20024;-76
2022/03/07 03:08:50;;;;;;;15.55;7.57;;;;;;;1.48;75.14;94640.13;4925490;29;20047;-76
2022/03/07 03:11:15;;;;;;;11.82;7.15;;;;;;;1.68;74.36;94636.00;4923710;29;20617;-76
2022/03/07 03:13:41;;;;;;;11.63;7.00;;;;;;;1.76;74.30;94642.78;4923434;29;20659;-76
2022/03/07 03:16:06;;;;;;;11.27;7.30;;;;;;;1.72;74.28;94649.25;4923402;29;20024;-76
2022/03/07 03:18:32;;;;;;;11.48;6.97;;;;;;;1.69;75.00;94639.38;4924415;29;20039;-76
2022/03/07 03:20:57;;;;;;;11.00;7.53;;;;;;;1.80;74.96;94649.94;4923358;29;20032;-76
2022/03/07 03:23:25;;;;;;;8.13;7.10;;;;;;;1.88;74.61;94640.53;4923380;29;20567;-76
2022/03/07 03:25:58;;;;;;;10.13;6.90;;;;;;;1.95;74.28;94639.66;4921041;29;20409;-75
2022/03/07 03:28:24;;;;;;;9.77;7.93;;;;;;;2.02;74.27;94648.19;4922045;29;20043;-76
2022/03/07 03:30:51;;;;;;;10.40;6.80;;;;;;;2.03;74.00;94651.53;4924392;29;20059;-76
2022/03/07 03:33:16;;;;;;;10.15;8.45;;;;;;;1.94;74.62;94639.81;4923663;29;20501;-76
2022/03/07 03:35:42;;;;;;;9.85;7.53;;;;;;;2.03;75.02;94638.72;4923813;29;20046;-76
2022/03/07 03:38:10;;;;;;;9.18;7.47;;;;;;;2.20;74.10;94644.41;4924297;29;20025;-76
2022/03/07 03:40:36;;;;;;;11.63;7.45;;;;;;;2.15;73.26;94641.59;4924040;29;20036;-76
2022/03/07 03:43:02;;;;;;;12.48;7.78;;;;;;;2.13;73.29;94641.00;4922879;29;20527;-76
2022/03/07 03:45:27;;;;;;;9.40;7.97;;;;;;;2.14;73.55;94642.56;4923329;29;20495;-77
2022/03/07 03:47:53;;;;;;;12.98;8.65;;;;;;;2.21;73.09;94646.78;4918816;29;20657;-76
2022/03/07 03:50:18;;;;;;;9.52;7.32;;;;;;;2.25;73.78;94642.84;4923809;29;20046;-76
2022/03/07 03:52:43;;;;;;;9.93;7.55;;;;;;;2.20;72.61;94646.97;4923008;29;20035;-76
2022/03/07 03:55:56;;;;;;;9.82;7.78;;;;;;;2.06;73.27;94644.28;4921545;29;20694;-75
2022/03/07 03:58:21;;;;;;;8.50;7.53;;;;;;;2.12;73.59;94653.03;4922974;29;20540;-75
2022/03/07 04:00:47;;;;;;;9.73;7.22;;;;;;;2.25;73.23;94650.56;4922272;29;20035;-76
2022/03/07 04:03:12;;;;;;;10.80;7.85;;;;;;;2.33;72.84;94655.56;4924306;29;20067;-76
2022/03/07 04:05:37;;;;;;;9.57;7.22;;;;;;;2.49;72.12;94644.25;4921501;29;20050;-76
2022/03/07 04:08:03;;;;;;;12.73;7.45;;;;;;;2.52;71.73;94637.94;4924373;29;20032;-76
2022/03/07 04:10:28;;;;;;;11.90;8.57;;;;;;;2.59;70.75;94643.91;4922396;29;20043;-76
2022/03/07 04:12:54;;;;;;;14.68;8.60;;;;;;;2.59;70.90;94644.69;4905728;29;20088;-75
2022/03/07 04:15:19;;;;;;;15.70;8.65;;;;;;;2.65;70.73;94648.31;4906490;29;20095;-76
2022/03/07 04:17:54;;;;;;;12.45;8.55;;;;;;;2.69;70.56;94641.81;4923631;29;20024;-75
2022/03/07 04:20:19;;;;;;;10.13;8.48;;;;;;;2.79;70.78;94650.00;4922035;29;20586;-76
2022/03/07 04:22:45;;;;;;;10.40;8.18;;;;;;;2.88;70.14;94650.63;4921714;29;20036;-76
2022/03/07 04:25:10;;;;;;;9.73;7.50;;;;;;;2.80;70.65;94648.22;4921942;29;20028;-76
2022/03/07 04:27:36;;;;;;;8.50;7.03;;;;;;;2.77;70.94;94649.41;4922107;29;20027;-76
2022/03/07 04:30:03;;;;;;;8.45;7.63;;;;;;;2.84;70.43;94647.66;4922888;29;20119;-76
2022/03/07 04:32:29;;;;;;;9.88;8.43;;;;;;;2.82;70.50;94654.75;4923294;29;20040;-76
2022/03/07 04:34:54;;;;;;;8.95;7.57;;;;;;;2.91;70.73;94648.47;4923852;29;20134;-76
2022/03/07 04:37:20;;;;;;;10.57;8.40;;;;;;;2.94;69.91;94649.91;4923469;29;20439;-75
2022/03/07 04:39:45;;;;;;;9.48;8.55;;;;;;;3.01;70.05;94654.06;4922945;29;20038;-77
2022/03/07 04:42:11;;;;;;;11.38;8.95;;;;;;;3.01;69.75;94650.72;4932658;23;20052;-78
2022/03/07 04:44:36;;;;;;;11.20;8.77;;;;;;;2.96;69.82;94650.50;4913597;29;20036;-76
2022/03/07 04:47:02;;;;;;;12.32;8.32;;;;;;;2.70;69.70;94651.09;4913927;29;20081;-75
2022/03/07 04:49:27;;;;;;;9.18;7.05;;;;;;;2.41;70.62;94650.28;4912603;29;20059;-76
2022/03/07 04:51:53;;;;;;;9.05;7.13;;;;;;;2.25;71.19;94657.47;4896389;29;20035;-77
2022/03/07 04:54:18;;;;;;;12.45;6.50;;;;;;;2.03;71.86;94654.09;4912330;29;20066;-75
2022/03/07 04:56:46;;;;;;;8.35;6.95;;;;;;;1.90;72.23;94661.66;4912156;29;20044;-75
2022/03/07 04:59:12;;;;;;;9.40;7.25;;;;;;;1.86;72.67;94666.38;4912767;29;20496;-76
2022/03/07 05:01:37;;;;;;;6.50;5.90;;;;;;;1.76;73.16;94661.53;4912254;29;20036;-75
2022/03/07 05:04:03;;;;;;;7.00;6.30;;;;;;;1.83;72.33;94659.03;4913399;29;20028;-75
2022/03/07 05:06:29;;;;;;;7.60;6.75;;;;;;;1.75;73.69;94659.94;4896640;29;20412;-76
2022/03/07 05:08:54;;;;;;;10.55;6.22;;;;;;;1.70;73.83;94664.81;4912546;29;20409;-77
2022/03/07 05:11:20;;;;;;;7.78;6.30;;;;;;;1.83;73.03;94663.38;4911413;29;20431;-75
2022/03/07 05:13:45;;;;;;;12.63;6.57;;;;;;;1.59;73.37;94667.84;4913493;29;20420;-74
2022/03/07 05:16:11;;;;;;;11.88;7.38;;;;;;;1.43;73.46;94662.91;4912216;29;20040;-76
2022/03/07 05:18:36;;;;;;;11.60;7.10;;;;;;;1.20;73.99;94652.78;4895976;29;20119;-74
2022/03/07 05:21:01;;;;;;;9.70;7.75;;;;;;;0.84;75.36;94657.84;4912925;29;20028;-74
2022/03/07 05:23:27;;;;;;;10.05;7.60;;;;;;;0.64;76.33;94661.84;4913205;29;20032;-75
2022/03/07 05:25:52;;;;;;;10.60;6.72;;;;;;;0.59;76.76;94663.16;4911608;29;20036;-74
2022/03/07 05:28:18;;;;;;;8.50;7.65;;;;;;;0.46;77.79;94664.72;4895267;29;20041;-75
2022/03/07 05:30:43;;;;;;;12.70;7.20;;;;;;;0.44;76.94;94667.47;4896079;29;20527;-76
2022/03/07 05:33:08;;;;;;;10.82;7.45;;;;;;;0.27;78.21;94658.34;4911577;29;20036;-74
2022/03/07 05:35:34;;;;;;;8.13;7.32;;;;;;;0.37;78.10;94666.56;4911556;29;20493;-74
2022/03/07 05:37:59;;;;;;;8.15;7.35;;;;;;;0.49;77.66;94665.19;4911854;29;20106;-74
2022/03/07 05:40:25;;;;;;;11.45;6.88;;;;;;;0.46;78.27;94660.41;4913090;29;20056;-75
2022/03/07 05:42:51;;;;;;;9.25;7.70;;;;;;;0.58;78.17;94673.59;4910220;29;20036;-75
2022/03/07 05:45:17;;;;;;;15.32;7.72;;;;;;;0.58;78.01;94659.03;4911381;29;20404;-75
2022/03/07 05:47:42;;;;;;;10.25;7.65;;;;;;;0.60;77.80;94663.97;4896158;29;20036;-75
2022/03/07 05:50:08;;;;;;;9.05;8.15;;;;;;;0.67;77.45;94661.53;4887582;29;20035;-75
2022/03/07 05:52:34;;;;;;;9.63;7.60;;;;;;;0.70;77.12;94661.97;4911164;29;20060;-75
2022/03/07 05:54:59;;;;;;;13.27;8.48;;;;;;;0.84;76.94;94660.41;4911101;29;20404;-75
2022/03/07 05:57:25;;;;;;;11.60;7.00;;;;;;;0.94;76.72;94663.47;4895435;29;20032;-75
2022/03/07 05:59:50;;;;;;;8.65;7.15;;;;;;;1.10;77.47;94670.19;4914191;29;20071;-77
2022/03/07 06:02:16;;;;;;;9.93;7.15;;;;;;;1.29;75.87;94663.72;4896061;29;20036;-75
2022/03/07 06:04:42;;;;;;;10.30;7.32;;;;;;;1.25;75.54;94672.75;4910452;29;20047;-75
2022/03/07 06:07:08;;;;;;;8.35;7.30;;;;;;;1.49;74.84;94668.13;4912664;29;20036;-75
2022/03/07 06:09:33;;;;;;;16.40;7.53;;;;;;;1.71;74.88;94670.75;4911301;29;20063;-75
2022/03/07 06:11:58;;;;;;;10.52;7.50;;;;;;;1.78;72.97;94667.25;4879764;29;20024;-75
2022/03/07 06:14:24;;;;;;;8.68;6.20;;;;;;;1.77;72.46;94670.78;4913040;29;20036;-75
2022/03/07 06:16:50;;;;;;;6.72;6.03;;;;;;;1.58;73.08;94670.59;4899121;29;20035;-75
2022/03/07 06:19:15;;;;;;;6.32;5.72;;;;;;;1.46;73.75;94667.69;4898757;29;20040;-74
2022/03/07 06:21:41;;;;;;;7.35;5.90;;;;;;;1.52;73.39;94671.31;4913119;29;20400;-74
2022/03/07 06:24:06;;;;;;;11.77;6.90;;;;;;;1.60;73.40;94669.44;4915179;29;20114;-75
2022/03/07 06:26:32;;;;;;;9.77;5.93;;;;;;;1.53;73.05;94668.56;4898637;29;20064;-75
2022/03/07 06:28:57;;;;;;;7.00;6.10;;;;;;;1.36;73.31;94667.19;4914613;29;20493;-75
2022/03/07 06:31:23;;;;;;;8.27;6.60;;;;;;;1.34;73.38;94669.13;4915480;29;20050;-75
2022/03/07 06:33:48;;;;;;;9.45;7.03;;;;;;;1.30;74.50;94673.00;4915682;29;20043;-74
2022/03/07 06:36:14;;;;;;;10.77;7.75;;;;;;;1.49;74.85;94667.34;4915564;29;20032;-75
2022/03/07 06:38:42;;;;;;;9.65;6.78;;;;;;;1.40;73.66;94673.53;4915620;29;20055;-75
2022/03/07 06:41:07;;;;;;;9.68;7.22;;;;;;;1.34;73.95;94675.03;4898691;29;20801;-74
2022/03/07 06:43:33;;;;;;;18.40;7.65;;;;;;;1.33;74.45;94681.16;4913830;29;20048;-75
2022/03/07 06:45:59;;;;;;;9.32;7.38;;;;;;;1.59;73.87;94672.97;4914491;29;20036;-74
2022/03/07 06:48:24;;;;;;;9.27;7.10;;;;;;;1.88;72.94;94671.31;4898178;29;20036;-74
2022/03/07 06:50:49;;;;;;;14.10;8.18;;;;;;;1.94;71.55;94670.56;4913270;29;20115;-75
2022/03/07 06:53:15;;;;;;;12.40;8.70;;;;;;;2.02;72.10;94663.56;4914986;29;20040;-75
2022/03/07 06:55:40;;;;;;;9.57;7.63;;;;;;;1.83;71.40;94673.63;4897862;29;20032;-75
2022/03/07 06:58:06;;;;;;;10.18;8.15;;;;;;;1.60;73.11;94678.88;4915459;29;20040;-75
2022/03/07 07:00:32;;;;;;;10.73;7.88;;;;;;;1.73;73.29;94679.03;4913840;29;20116;-75
2022/03/07 07:02:57;;;;;;;12.93;8.15;;;;;;;1.86;72.21;94674.06;4913666;29;20082;-75
2022/03/07 07:05:23;;;;;;;10.30;7.57;;;;;;;1.73;73.70;94671.34;4913472;29;20493;-75
2022/03/07 07:07:48;;;;;;;12.88;8.18;;;;;;;1.86;73.08;94676.63;4915050;29;20084;-76
2022/03/07 07:10:19;;;;;;;19.25;9.02;;;;;;;2.05;72.99;94677.78;4897766;29;20479;-75
2022/03/07 07:12:46;;;;;;;8.48;7.32;;;;;;;2.19;71.68;94679.50;4915115;29;20039;-76
2022/03/07 07:15:12;;;;;;;8.73;7.18;;;;;;;2.17;71.25;94668.66;4898120;29;20040;-75
2022/03/07 07:17:37;;;;;;;12.93;8.73;;;;;;;2.37;70.88;94674.75;4913123;29;20499;-75
2022/03/07 07:20:06;;;;;;;14.25;9.35;;;;;;;2.42;69.70;94680.09;4913755;29;20043;-75
2022/03/07 07:22:32;;;;;;;12.40;9.15;;;;;;;2.53;70.22;94670.34;4913219;29;20899;-75
2022/03/07 07:24:57;;;;;;;17.52;10.40;;;;;;;2.50;69.49;94680.97;4912615;29;20039;-75
2022/03/07 07:27:23;;;;;;;14.30;11.02;;;;;;;2.57;69.93;94680.03;4914911;29;20036;-76
2022/03/07 07:29:48;;;;;;;15.85;11.20;;;;;;;2.72;68.83;94674.81;4914199;29;20663;-74
2022/03/07 07:32:13;;;;;;;14.20;11.10;;;;;;;2.44;68.88;94676.56;4914468;29;20024;-75
2022/03/07 07:34:39;;;;;;;20.65;10.43;;;;;;;2.47;69.33;94683.91;4897824;29;20083;-75
2022/03/07 07:37:04;;;;;;;15.85;11.75;;;;;;;2.46;69.14;94684.91;4914718;29;20039;-75
2022/03/07 07:39:30;;;;;;;23.95;10.93;;;;;;;2.52;68.77;94689.28;4913475;29;20046;-75
2022/03/07 07:41:56;;;;;;;16.60;11.38;;;;;;;2.39;70.20;94684.81;4897247;29;20036;-75
2022/03/07 07:44:22;;;;;;;19.90;12.73;;;;;;;2.63;69.62;94687.00;4914740;29;20048;-75
2022/03/07 07:46:47;;;;;;;17.65;11.65;;;;;;;2.76;68.29;94685.50;4897775;29;20068;-75
2022/03/07 07:49:13;;;;;;;16.95;13.18;;;;;;;2.66;69.45;94684.06;4913212;29;20504;-75
2022/03/07 07:51:38;;;;;;;19.88;12.65;;;;;;;2.87;68.31;94693.50;4913319;29;20249;-75
2022/03/07 07:54:04;;;;;;;20.88;12.23;;;;;;;2.94;68.52;94693.56;4913043;29;20032;-75
2022/03/07 07:56:59;;;;;;;19.40;12.20;;;;;;;3.06;68.38;94699.75;4915615;29;20043;-76
2022/03/07 07:59:26;;;;;;;18.90;13.02;;;;;;;3.18;67.26;94700.03;4912676;29;20436;-75
2022/03/07 08:01:53;;;;;;;20.05;13.60;;;;;;;3.21;67.52;94699.63;4913738;29;20477;-75
2022/03/07 08:04:18;;;;;;;19.20;13.05;;;;;;;3.17;67.67;94698.44;4914562;29;20036;-75
2022/03/07 08:06:43;;;;;;;21.20;13.43;;;;;;;3.17;68.16;94688.16;4882015;29;20510;-75
2022/03/07 08:09:09;;;;;;;19.95;12.57;;;;;;;3.25;67.31;94696.53;4897414;29;20044;-75
2022/03/07 08:11:34;;;;;;;17.10;11.90;;;;;;;3.30;66.49;94693.38;4897109;29;20132;-75
2022/03/07 08:14:00;;;;;;;27.20;11.48;;;;;;;3.31;66.39;94694.97;4896744;29;20395;-75
2022/03/07 08:16:25;;;;;;;17.58;11.13;;;;;;;3.31;66.84;94700.09;4897307;29;20524;-75
2022/03/07 08:18:51;;;;;;;14.65;10.50;;;;;;;3.36;65.83;94702.88;4914239;29;20400;-75
2022/03/07 08:21:20;;;;;;;19.90;10.50;;;;;;;3.00;66.13;94690.22;4897115;29;20035;-76
2022/03/07 08:23:48;;;;;;;19.83;11.77;;;;;;;2.95;66.46;94701.06;4896920;29;20119;-75
2022/03/07 08:26:14;;;;;;;19.92;11.02;;;;;;;2.96;67.02;94692.38;4896276;29;20503;-75
2022/03/07 08:28:53;;;;;;;15.00;11.32;;;;;;;2.90;66.87;94692.31;4896842;29;20043;-75
2022/03/07 08:31:18;;;;;;;14.35;11.63;;;;;;;3.16;67.44;94702.00;4896933;29;20040;-75
2022/03/07 08:33:43;;;;;;;13.40;10.32;;;;;;;3.29;65.76;94702.06;4896442;29;20051;-75
2022/03/07 08:36:09;;;;;;;15.80;9.32;;;;;;;3.34;64.95;94704.84;4913827;29;20040;-75
2022/03/07 08:38:34;;;;;;;11.90;8.88;;;;;;;3.35;64.78;94705.66;4913336;29;20043;-75
2022/03/07 08:41:00;;;;;;;12.25;7.88;;;;;;;3.54;64.86;94704.97;4913547;29;20039;-75
2022/03/07 08:43:26;;;;;;;14.73;7.82;;;;;;;3.56;64.04;94708.13;4912356;29;20044;-75
2022/03/07 08:45:51;;;;;;;11.10;7.88;;;;;;;3.60;63.23;94706.78;4912240;29;20496;-75
2022/03/07 08:48:17;;;;;;;17.88;8.77;;;;;;;3.70;63.97;94708.97;4914044;29;20432;-75
2022/03/07 08:50:42;;;;;;;11.07;8.45;;;;;;;3.81;62.18;94711.00;4896445;29;20043;-75
2022/03/07 08:53:07;;;;;;;17.55;9.82;;;;;;;3.91;62.17;94711.47;4912345;29;20040;-75
2022/03/07 08:55:33;;;;;;;13.73;9.95;;;;;;;4.01;62.35;94714.44;4912308;29;20035;-75
2022/03/07 08:58:05;;;;;;;18.85;10.57;;;;;;;4.06;62.68;94706.94;4912489;29;20497;-75
2022/03/07 09:00:30;;;;;;;18.48;11.10;;;;;;;3.99;61.79;94710.47;4911990;29;20517;-75
2022/03/07 09:02:56;;;;;;;18.75;10.98;;;;;;;4.02;61.99;94705.72;4913411;29;20480;-75
2022/03/07 09:05:21;;;;;;;24.73;12.38;;;;;;;4.06;63.08;94704.34;4913716;29;20036;-75
2022/03/07 09:07:46;;;;;;;18.20;11.55;;;;;;;4.26;62.26;94708.78;4913852;29;20107;-75
2022/03/07 09:10:12;;;;;;;19.20;11.60;;;;;;;4.36;60.64;94709.97;4913077;29;20032;-75
2022/03/07 09:12:37;;;;;;;18.63;10.98;;;;;;;4.30;59.78;94709.97;4912048;29;20044;-75
2022/03/07 09:15:05;;;;;;;20.70;11.85;;;;;;;4.35;60.60;94707.59;4913368;29;20032;-74
2022/03/07 09:17:30;;;;;;;17.48;12.18;;;;;;;4.39;60.09;94707.03;4895938;29;20032;-74
2022/03/07 09:19:56;;;;;;;20.60;10.90;;;;;;;4.52;60.79;94701.88;4912299;29;20040;-74
2022/03/07 09:22:22;;;;;;;16.38;9.60;;;;;;;4.45;59.90;94702.88;4912896;29;20055;-75
2022/03/07 09:24:48;;;;;;;18.25;9.68;;;;;;;4.42;60.35;94693.75;4911822;29;20071;-73
2022/03/07 09:27:13;;;;;;;14.75;9.95;;;;;;;4.52;59.59;94698.50;4913144;29;20036;-75
2022/03/07 09:29:39;;;;;;;15.32;9.40;;;;;;;4.51;60.14;94702.06;4895661;29;20043;-75
2022/03/07 09:32:05;;;;;;;18.17;10.75;;;;;;;4.58;59.39;94695.16;4895989;29;20039;-74
2022/03/07 09:34:40;;;;;;;15.23;10.57;;;;;;;4.46;58.47;94696.72;4912505;29;20115;-75
2022/03/07 09:37:06;;;;;;;16.40;11.13;;;;;;;4.47;58.45;94693.16;4897050;29;20050;-76
2022/03/07 09:39:33;;;;;;;15.40;10.15;;;;;;;4.50;58.45;94687.59;4912925;29;20036;-75
2022/03/07 09:41:58;;;;;;;15.18;10.35;;;;;;;4.65;59.42;94687.44;4912130;29;20035;-76
2022/03/07 09:44:24;;;;;;;18.50;11.27;;;;;;;4.79;58.27;94689.00;4910732;29;20424;-75
2022/03/07 09:46:50;;;;;;;17.92;10.02;;;;;;;4.91;58.78;94687.44;4912877;29;20099;-75
2022/03/07 09:49:20;;;;;;;23.17;10.88;;;;;;;4.72;58.66;94688.22;4894794;29;20044;-75
2022/03/07 09:51:45;;;;;;;17.00;10.05;;;;;;;4.82;58.01;94693.75;4916102;29;20029;-75
2022/03/07 09:54:10;;;;;;;12.23;7.78;;;;;;;4.69;57.20;94688.59;4898600;29;20040;-75
2022/03/07 09:56:36;;;;;;;12.30;8.45;;;;;;;4.86;57.61;94684.63;4915201;29;20639;-75
2022/03/07 09:59:02;;;;;;;10.35;6.10;;;;;;;4.73;56.91;94679.50;4914852;29;20028;-75
2022/03/07 10:01:28;;;;;;;8.13;7.28;;;;;;;4.68;57.33;94681.88;4899228;29;20046;-75
2022/03/07 10:04:06;;;;;;;14.88;9.32;;;;;;;4.71;57.93;94691.78;4898940;29;20036;-75
2022/03/07 10:06:32;;;;;;;12.15;8.88;;;;;;;4.81;58.56;94690.41;4914896;29;20036;-75
2022/03/07 10:08:58;;;;;;;11.80;7.90;;;;;;;4.89;57.58;94686.84;4914698;29;20040;-75
2022/03/07 10:11:24;;;;;;;9.45;7.38;;;;;;;4.90;57.04;94690.22;4899120;29;20135;-76
2022/03/07 10:13:55;;;;;;;8.95;7.65;;;;;;;4.89;57.11;94688.63;4898528;29;20115;-75
2022/03/07 10:16:22;;;;;;;10.23;6.68;;;;;;;4.87;56.42;94700.88;4915026;29;20509;-75
2022/03/07 10:19:11;;;;;;;11.63;8.00;;;;;;;4.91;56.37;94694.38;4914567;29;20084;-75
2022/03/07 10:21:45;;;;;;;11.75;7.70;;;;;;;5.00;56.84;94690.56;4914759;29;20028;-75
2022/03/07 10:24:10;;;;;;;10.93;6.78;;;;;;;4.98;55.61;94683.06;4913499;29;20040;-75
2022/03/07 10:26:36;;;;;;;12.18;7.57;;;;;;;4.98;55.64;94677.09;4898829;29;20060;-75
2022/03/07 10:29:04;;;;;;;11.30;7.47;;;;;;;5.02;57.10;94680.84;4914742;29;20064;-78
2022/03/07 10:31:29;;;;;;;14.80;8.52;;;;;;;5.10;55.75;94678.09;4914427;29;20036;-75
2022/03/07 10:34:00;;;;;;;14.13;10.05;;;;;;;5.03;56.46;94677.28;4914415;29;20040;-75
2022/03/07 10:36:36;;;;;;;15.57;9.80;;;;;;;5.01;57.08;94676.69;4915460;29;20424;-75
2022/03/07 10:41:37;;;;;;;13.02;8.85;;;;;;;5.20;57.14;94680.22;4937255;23;20138;-76
2022/03/07 10:44:04;;;;;;;14.88;9.25;;;;;;;5.23;56.85;94675.50;4923459;29;20654;-76
2022/03/07 10:46:29;;;;;;;18.35;8.80;;;;;;;5.23;56.27;94685.00;4923635;29;20040;-76
2022/03/07 10:48:55;;;;;;;12.52;8.90;;;;;;;5.31;56.91;94680.41;4922523;29;20038;-75
2022/03/07 10:51:21;;;;;;;12.68;8.63;;;;;;;5.18;56.53;94683.00;4924727;29;20039;-75
2022/03/07 10:53:46;;;;;;;19.33;10.40;;;;;;;5.22;57.08;94679.06;4924250;29;20035;-75
2022/03/07 10:56:16;;;;;;;15.65;9.18;;;;;;;5.29;57.44;94671.31;4923741;29;20028;-75
2022/03/07 10:58:46;;;;;;;15.55;9.57;;;;;;;5.37;56.14;94677.03;4947491;29;20034;-75
2022/03/07 11:01:11;;;;;;;19.02;10.85;;;;;;;5.38;55.63;94676.06;4924810;29;20036;-75
2022/03/07 11:03:37;;;;;;;9.32;7.15;;;;;;;5.36;54.17;94669.47;4930852;29;20051;-75
2022/03/07 11:06:02;;;;;;;10.02;7.35;;;;;;;5.25;54.62;94678.66;4919143;29;20809;-75
2022/03/07 11:08:28;;;;;;;17.15;7.93;;;;;;;5.17;55.14;94671.13;4915334;29;20058;-75
2022/03/07 11:10:56;;;;;;;11.82;7.63;;;;;;;5.22;55.75;94663.59;4943410;29;20038;-76
2022/03/07 11:13:29;;;;;;;14.23;10.23;;;;;;;5.31;55.63;94667.53;4916449;29;20076;-75
2022/03/07 11:16:00;;;;;;;14.93;10.95;;;;;;;5.39;55.35;94663.94;4893054;29;20075;-75
2022/03/07 11:18:26;;;;;;;15.50;10.70;;;;;;;5.33;55.59;94662.94;4914278;29;20116;-75
2022/03/07 11:20:52;;;;;;;17.05;10.07;;;;;;;5.22;56.27;94667.97;4920463;29;20036;-75
2022/03/07 11:23:18;;;;;;;16.92;10.73;;;;;;;5.28;56.41;94657.63;4905179;29;20036;-75
2022/03/07 11:25:44;;;;;;;14.48;10.65;;;;;;;5.29;56.15;94661.78;4917433;29;20118;-75
2022/03/07 11:28:09;;;;;;;18.52;12.10;;;;;;;5.38;56.06;94667.53;4904443;29;20503;-75
2022/03/07 11:30:37;;;;;;;22.88;11.38;;;;;;;5.46;56.82;94663.91;4944877;29;20043;-76
2022/03/07 11:33:10;;;;;;;20.70;12.77;;;;;;;5.49;56.52;94663.50;4927998;29;20027;-76
2022/03/07 11:35:36;;;;;;;34.25;18.63;;;;;;;5.51;57.25;94664.88;4922130;29;20468;-76
2022/03/07 11:38:31;;;;;;;37.15;19.95;;;;;;;5.58;57.06;94657.13;4899299;29;20594;-75
2022/03/07 11:41:03;;;;;;;15.75;10.73;;;;;;;5.54;55.52;94651.59;4907990;29;20122;-75